sensor_id;sensor_type;location;lat;lon;timestamp;P1;durP1;ratioP1;P2;durP2;ratioP2
25449;SDS011;13371;52.080;5.624;2024-01-27T00:01:34;10.45;;;2.65;;
25449;SDS011;13371;52.080;5.624;2024-01-27T00:04:00;14.07;;;2.88;;
25449;SDS011;13371;52.080;5.624;2024-01-27T00:06:26;16.45;;;3.92;;
25449;SDS011;13371;52.080;5.624;2024-01-27T00:08:52;11.32;;;2.75;;
25449;SDS011;13371;52.080;5.624;2024-01-27T00:11:17;11.07;;;2.63;;
25449;SDS011;13371;52.080;5.624;2024-01-27T00:13:44;13.25;;;3.22;;
25449;SDS011;13371;52.080;5.624;2024-01-27T00:16:09;10.75;;;3.03;;
25449;SDS011;13371;52.080;5.624;2024-01-27T00:18:38;12.02;;;2.30;;
25449;SDS011;13371;52.080;5.624;2024-01-27T00:21:05;10.77;;;2.60;;
25449;SDS011;13371;52.080;5.624;2024-01-27T00:23:31;7.40;;;2.60;;
25449;SDS011;13371;52.080;5.624;2024-01-27T00:25:57;14.18;;;2.83;;
25449;SDS011;13371;52.080;5.624;2024-01-27T00:28:23;9.75;;;2.58;;
25449;SDS011;13371;52.080;5.624;2024-01-27T00:30:49;8.50;;;2.60;;
25449;SDS011;13371;52.080;5.624;2024-01-27T00:33:14;9.88;;;2.53;;
25449;SDS011;13371;52.080;5.624;2024-01-27T00:35:40;8.77;;;2.33;;
25449;SDS011;13371;52.080;5.624;2024-01-27T00:38:05;12.30;;;2.53;;
25449;SDS011;13371;52.080;5.624;2024-01-27T00:40:31;8.30;;;2.53;;
25449;SDS011;13371;52.080;5.624;2024-01-27T00:42:56;7.70;;;2.70;;
25449;SDS011;13371;52.080;5.624;2024-01-27T00:45:22;7.65;;;2.92;;
25449;SDS011;13371;52.080;5.624;2024-01-27T00:47:48;6.65;;;2.33;;
25449;SDS011;13371;52.080;5.624;2024-01-27T00:50:15;10.27;;;2.47;;
25449;SDS011;13371;52.080;5.624;2024-01-27T00:52:41;11.82;;;2.67;;
25449;SDS011;13371;52.080;5.624;2024-01-27T00:55:07;12.48;;;3.00;;
25449;SDS011;13371;52.080;5.624;2024-01-27T00:57:32;14.23;;;2.92;;
25449;SDS011;13371;52.080;5.624;2024-01-27T00:59:58;12.27;;;3.17;;
25449;SDS011;13371;52.080;5.624;2024-01-27T01:02:24;10.38;;;2.58;;
25449;SDS011;13371;52.080;5.624;2024-01-27T01:04:49;10.10;;;2.65;;
25449;SDS011;13371;52.080;5.624;2024-01-27T01:07:15;6.75;;;2.83;;
25449;SDS011;13371;52.080;5.624;2024-01-27T01:09:40;6.70;;;2.35;;
25449;SDS011;13371;52.080;5.624;2024-01-27T01:12:06;5.43;;;2.58;;
25449;SDS011;13371;52.080;5.624;2024-01-27T01:14:32;7.90;;;2.83;;
25449;SDS011;13371;52.080;5.624;2024-01-27T01:16:57;6.78;;;2.22;;
25449;SDS011;13371;52.080;5.624;2024-01-27T01:19:23;8.98;;;2.97;;
25449;SDS011;13371;52.080;5.624;2024-01-27T01:21:49;6.03;;;1.95;;
25449;SDS011;13371;52.080;5.624;2024-01-27T01:24:14;9.93;;;2.22;;
25449;SDS011;13371;52.080;5.624;2024-01-27T01:26:40;6.85;;;2.03;;
25449;SDS011;13371;52.080;5.624;2024-01-27T01:29:05;15.30;;;2.65;;
25449;SDS011;13371;52.080;5.624;2024-01-27T01:31:31;9.70;;;2.20;;
25449;SDS011;13371;52.080;5.624;2024-01-27T01:33:57;10.68;;;2.38;;
25449;SDS011;13371;52.080;5.624;2024-01-27T01:36:23;10.57;;;2.65;;
25449;SDS011;13371;52.080;5.624;2024-01-27T01:38:48;10.55;;;2.45;;
25449;SDS011;13371;52.080;5.624;2024-01-27T01:41:14;9.38;;;2.40;;
25449;SDS011;13371;52.080;5.624;2024-01-27T01:43:39;5.65;;;2.20;;
25449;SDS011;13371;52.080;5.624;2024-01-27T01:46:05;7.22;;;2.10;;
25449;SDS011;13371;52.080;5.624;2024-01-27T01:48:31;8.02;;;1.83;;
25449;SDS011;13371;52.080;5.624;2024-01-27T01:50:57;10.20;;;2.30;;
25449;SDS011;13371;52.080;5.624;2024-01-27T01:53:25;5.60;;;1.80;;
25449;SDS011;13371;52.080;5.624;2024-01-27T01:55:51;12.07;;;2.25;;
25449;SDS011;13371;52.080;5.624;2024-01-27T01:58:17;11.27;;;2.20;;
25449;SDS011;13371;52.080;5.624;2024-01-27T02:00:43;10.00;;;2.65;;
25449;SDS011;13371;52.080;5.624;2024-01-27T02:03:12;10.60;;;3.00;;
25449;SDS011;13371;52.080;5.624;2024-01-27T02:05:38;8.05;;;2.70;;
25449;SDS011;13371;52.080;5.624;2024-01-27T02:08:05;9.25;;;2.25;;
25449;SDS011;13371;52.080;5.624;2024-01-27T02:10:30;7.97;;;2.40;;
25449;SDS011;13371;52.080;5.624;2024-01-27T02:13:16;5.70;;;1.88;;
25449;SDS011;13371;52.080;5.624;2024-01-27T02:15:43;9.02;;;2.30;;
25449;SDS011;13371;52.080;5.624;2024-01-27T02:18:09;6.20;;;2.47;;
25449;SDS011;13371;52.080;5.624;2024-01-27T02:20:34;5.45;;;2.03;;
25449;SDS011;13371;52.080;5.624;2024-01-27T02:23:00;11.23;;;2.35;;
25449;SDS011;13371;52.080;5.624;2024-01-27T02:25:29;7.72;;;2.10;;
25449;SDS011;13371;52.080;5.624;2024-01-27T02:27:58;13.48;;;1.98;;
25449;SDS011;13371;52.080;5.624;2024-01-27T02:30:24;7.93;;;2.95;;
25449;SDS011;13371;52.080;5.624;2024-01-27T02:32:50;4.90;;;1.85;;
25449;SDS011;13371;52.080;5.624;2024-01-27T02:35:16;5.60;;;1.60;;
25449;SDS011;13371;52.080;5.624;2024-01-27T02:37:41;9.60;;;1.98;;
25449;SDS011;13371;52.080;5.624;2024-01-27T02:40:07;7.15;;;2.58;;
25449;SDS011;13371;52.080;5.624;2024-01-27T02:42:34;8.32;;;2.53;;
25449;SDS011;13371;52.080;5.624;2024-01-27T02:45:00;6.72;;;2.58;;
25449;SDS011;13371;52.080;5.624;2024-01-27T02:47:26;8.45;;;2.90;;
25449;SDS011;13371;52.080;5.624;2024-01-27T02:49:52;19.92;;;4.18;;
25449;SDS011;13371;52.080;5.624;2024-01-27T02:52:17;8.07;;;3.20;;
25449;SDS011;13371;52.080;5.624;2024-01-27T02:54:43;7.82;;;2.38;;
25449;SDS011;13371;52.080;5.624;2024-01-27T02:57:09;12.38;;;2.28;;
25449;SDS011;13371;52.080;5.624;2024-01-27T02:59:34;12.85;;;2.80;;
25449;SDS011;13371;52.080;5.624;2024-01-27T03:02:03;10.55;;;2.20;;
25449;SDS011;13371;52.080;5.624;2024-01-27T03:04:32;5.45;;;1.90;;
25449;SDS011;13371;52.080;5.624;2024-01-27T03:06:58;8.43;;;2.15;;
25449;SDS011;13371;52.080;5.624;2024-01-27T03:09:23;6.85;;;2.85;;
25449;SDS011;13371;52.080;5.624;2024-01-27T03:11:49;4.55;;;1.65;;
25449;SDS011;13371;52.080;5.624;2024-01-27T03:14:14;14.65;;;2.42;;
25449;SDS011;13371;52.080;5.624;2024-01-27T03:16:40;8.95;;;2.08;;
25449;SDS011;13371;52.080;5.624;2024-01-27T03:19:06;5.55;;;2.08;;
25449;SDS011;13371;52.080;5.624;2024-01-27T03:21:32;7.57;;;2.10;;
25449;SDS011;13371;52.080;5.624;2024-01-27T03:23:58;9.25;;;2.22;;
25449;SDS011;13371;52.080;5.624;2024-01-27T03:26:23;7.07;;;2.25;;
25449;SDS011;13371;52.080;5.624;2024-01-27T03:28:49;7.65;;;2.15;;
25449;SDS011;13371;52.080;5.624;2024-01-27T03:31:15;6.45;;;1.95;;
25449;SDS011;13371;52.080;5.624;2024-01-27T03:33:41;16.73;;;2.38;;
25449;SDS011;13371;52.080;5.624;2024-01-27T03:36:10;18.17;;;2.72;;
25449;SDS011;13371;52.080;5.624;2024-01-27T03:38:37;6.22;;;2.28;;
25449;SDS011;13371;52.080;5.624;2024-01-27T03:41:04;14.05;;;2.20;;
25449;SDS011;13371;52.080;5.624;2024-01-27T03:43:29;6.07;;;2.13;;
25449;SDS011;13371;52.080;5.624;2024-01-27T03:45:56;18.52;;;2.90;;
25449;SDS011;13371;52.080;5.624;2024-01-27T03:48:22;10.10;;;2.30;;
25449;SDS011;13371;52.080;5.624;2024-01-27T03:50:48;6.65;;;2.10;;
25449;SDS011;13371;52.080;5.624;2024-01-27T03:53:13;4.15;;;2.05;;
25449;SDS011;13371;52.080;5.624;2024-01-27T03:55:39;16.02;;;3.05;;
25449;SDS011;13371;52.080;5.624;2024-01-27T03:58:04;11.23;;;2.83;;
25449;SDS011;13371;52.080;5.624;2024-01-27T04:00:30;12.25;;;2.50;;
25449;SDS011;13371;52.080;5.624;2024-01-27T04:02:58;9.10;;;2.50;;
25449;SDS011;13371;52.080;5.624;2024-01-27T04:05:24;7.50;;;2.45;;
25449;SDS011;13371;52.080;5.624;2024-01-27T04:07:50;8.02;;;2.35;;
25449;SDS011;13371;52.080;5.624;2024-01-27T04:10:16;9.65;;;2.53;;
25449;SDS011;13371;52.080;5.624;2024-01-27T04:12:43;6.43;;;2.38;;
25449;SDS011;13371;52.080;5.624;2024-01-27T04:15:08;14.63;;;3.08;;
25449;SDS011;13371;52.080;5.624;2024-01-27T04:17:34;8.07;;;2.42;;
25449;SDS011;13371;52.080;5.624;2024-01-27T04:20:00;9.55;;;2.75;;
25449;SDS011;13371;52.080;5.624;2024-01-27T04:22:26;9.40;;;2.75;;
25449;SDS011;13371;52.080;5.624;2024-01-27T04:24:51;10.68;;;2.70;;
25449;SDS011;13371;52.080;5.624;2024-01-27T04:27:17;5.60;;;2.20;;
25449;SDS011;13371;52.080;5.624;2024-01-27T04:29:43;9.88;;;2.80;;
25449;SDS011;13371;52.080;5.624;2024-01-27T04:32:08;5.95;;;2.22;;
25449;SDS011;13371;52.080;5.624;2024-01-27T04:34:34;6.88;;;2.60;;
25449;SDS011;13371;52.080;5.624;2024-01-27T04:36:59;4.82;;;2.10;;
25449;SDS011;13371;52.080;5.624;2024-01-27T04:39:26;9.55;;;3.33;;
25449;SDS011;13371;52.080;5.624;2024-01-27T04:41:51;8.57;;;2.65;;
25449;SDS011;13371;52.080;5.624;2024-01-27T04:44:17;9.30;;;2.08;;
25449;SDS011;13371;52.080;5.624;2024-01-27T04:46:45;9.48;;;2.50;;
25449;SDS011;13371;52.080;5.624;2024-01-27T04:49:11;6.63;;;2.22;;
25449;SDS011;13371;52.080;5.624;2024-01-27T04:51:36;7.60;;;2.60;;
25449;SDS011;13371;52.080;5.624;2024-01-27T04:54:02;9.88;;;2.70;;
25449;SDS011;13371;52.080;5.624;2024-01-27T04:56:27;5.65;;;2.80;;
25449;SDS011;13371;52.080;5.624;2024-01-27T04:58:53;9.48;;;2.47;;
25449;SDS011;13371;52.080;5.624;2024-01-27T05:01:19;8.85;;;2.63;;
25449;SDS011;13371;52.080;5.624;2024-01-27T05:03:44;9.70;;;2.67;;
25449;SDS011;13371;52.080;5.624;2024-01-27T05:06:10;10.05;;;2.83;;
25449;SDS011;13371;52.080;5.624;2024-01-27T05:08:35;6.68;;;2.85;;
25449;SDS011;13371;52.080;5.624;2024-01-27T05:11:02;8.48;;;2.85;;
25449;SDS011;13371;52.080;5.624;2024-01-27T05:13:27;9.50;;;2.45;;
25449;SDS011;13371;52.080;5.624;2024-01-27T05:15:53;7.85;;;2.83;;
25449;SDS011;13371;52.080;5.624;2024-01-27T05:18:19;6.22;;;3.00;;
25449;SDS011;13371;52.080;5.624;2024-01-27T05:20:44;10.13;;;3.08;;
25449;SDS011;13371;52.080;5.624;2024-01-27T05:23:10;11.07;;;3.17;;
25449;SDS011;13371;52.080;5.624;2024-01-27T05:25:35;10.18;;;3.35;;
25449;SDS011;13371;52.080;5.624;2024-01-27T05:28:01;11.30;;;3.85;;
25449;SDS011;13371;52.080;5.624;2024-01-27T05:30:27;13.05;;;3.15;;
25449;SDS011;13371;52.080;5.624;2024-01-27T05:32:52;4.95;;;2.80;;
25449;SDS011;13371;52.080;5.624;2024-01-27T05:35:18;14.45;;;3.30;;
25449;SDS011;13371;52.080;5.624;2024-01-27T05:37:44;6.00;;;3.42;;
25449;SDS011;13371;52.080;5.624;2024-01-27T05:40:09;10.05;;;3.53;;
25449;SDS011;13371;52.080;5.624;2024-01-27T05:42:36;8.75;;;3.13;;
25449;SDS011;13371;52.080;5.624;2024-01-27T05:45:01;12.93;;;3.58;;
25449;SDS011;13371;52.080;5.624;2024-01-27T05:47:27;11.20;;;3.08;;
25449;SDS011;13371;52.080;5.624;2024-01-27T05:49:52;11.63;;;3.85;;
25449;SDS011;13371;52.080;5.624;2024-01-27T05:52:18;14.25;;;3.45;;
25449;SDS011;13371;52.080;5.624;2024-01-27T05:54:43;10.52;;;3.33;;
25449;SDS011;13371;52.080;5.624;2024-01-27T05:57:09;15.57;;;4.03;;
25449;SDS011;13371;52.080;5.624;2024-01-27T05:59:34;11.00;;;3.50;;
25449;SDS011;13371;52.080;5.624;2024-01-27T06:02:00;10.23;;;3.70;;
25449;SDS011;13371;52.080;5.624;2024-01-27T06:04:26;10.63;;;3.72;;
25449;SDS011;13371;52.080;5.624;2024-01-27T06:06:52;12.65;;;4.05;;
25449;SDS011;13371;52.080;5.624;2024-01-27T06:09:18;8.88;;;3.75;;
25449;SDS011;13371;52.080;5.624;2024-01-27T06:11:44;10.32;;;3.40;;
25449;SDS011;13371;52.080;5.624;2024-01-27T06:14:09;7.90;;;3.33;;
25449;SDS011;13371;52.080;5.624;2024-01-27T06:16:35;11.68;;;4.03;;
25449;SDS011;13371;52.080;5.624;2024-01-27T06:19:00;6.40;;;3.42;;
25449;SDS011;13371;52.080;5.624;2024-01-27T06:21:26;9.77;;;4.07;;
25449;SDS011;13371;52.080;5.624;2024-01-27T06:23:52;12.38;;;4.55;;
25449;SDS011;13371;52.080;5.624;2024-01-27T06:26:17;10.88;;;4.45;;
25449;SDS011;13371;52.080;5.624;2024-01-27T06:28:43;6.60;;;3.63;;
25449;SDS011;13371;52.080;5.624;2024-01-27T06:31:09;12.35;;;4.57;;
25449;SDS011;13371;52.080;5.624;2024-01-27T06:33:34;11.85;;;4.13;;
25449;SDS011;13371;52.080;5.624;2024-01-27T06:36:00;8.50;;;4.30;;
25449;SDS011;13371;52.080;5.624;2024-01-27T06:38:26;9.65;;;4.15;;
25449;SDS011;13371;52.080;5.624;2024-01-27T06:40:52;9.05;;;4.68;;
25449;SDS011;13371;52.080;5.624;2024-01-27T06:43:19;10.23;;;3.75;;
25449;SDS011;13371;52.080;5.624;2024-01-27T06:45:45;9.73;;;3.60;;
25449;SDS011;13371;52.080;5.624;2024-01-27T06:48:10;8.23;;;4.05;;
25449;SDS011;13371;52.080;5.624;2024-01-27T06:50:36;11.27;;;4.72;;
25449;SDS011;13371;52.080;5.624;2024-01-27T06:53:01;11.80;;;4.05;;
25449;SDS011;13371;52.080;5.624;2024-01-27T06:55:27;7.57;;;4.13;;
25449;SDS011;13371;52.080;5.624;2024-01-27T06:57:53;13.10;;;4.82;;
25449;SDS011;13371;52.080;5.624;2024-01-27T07:00:19;18.33;;;4.40;;
25449;SDS011;13371;52.080;5.624;2024-01-27T07:02:45;8.07;;;4.32;;
25449;SDS011;13371;52.080;5.624;2024-01-27T07:05:11;11.75;;;4.88;;
25449;SDS011;13371;52.080;5.624;2024-01-27T07:07:39;12.43;;;5.07;;
25449;SDS011;13371;52.080;5.624;2024-01-27T07:10:05;10.38;;;5.25;;
25449;SDS011;13371;52.080;5.624;2024-01-27T07:12:33;12.35;;;4.80;;
25449;SDS011;13371;52.080;5.624;2024-01-27T07:14:58;12.05;;;4.60;;
25449;SDS011;13371;52.080;5.624;2024-01-27T07:17:25;12.95;;;4.38;;
25449;SDS011;13371;52.080;5.624;2024-01-27T07:19:54;21.52;;;5.10;;
25449;SDS011;13371;52.080;5.624;2024-01-27T07:22:22;17.80;;;5.28;;
25449;SDS011;13371;52.080;5.624;2024-01-27T07:24:48;13.30;;;5.50;;
25449;SDS011;13371;52.080;5.624;2024-01-27T07:27:16;9.68;;;4.57;;
25449;SDS011;13371;52.080;5.624;2024-01-27T07:29:43;14.20;;;5.57;;
25449;SDS011;13371;52.080;5.624;2024-01-27T07:32:08;8.70;;;4.88;;
25449;SDS011;13371;52.080;5.624;2024-01-27T07:34:38;14.60;;;6.18;;
25449;SDS011;13371;52.080;5.624;2024-01-27T07:37:10;15.73;;;5.82;;
25449;SDS011;13371;52.080;5.624;2024-01-27T07:39:35;13.23;;;5.78;;
25449;SDS011;13371;52.080;5.624;2024-01-27T07:42:01;17.23;;;5.82;;
25449;SDS011;13371;52.080;5.624;2024-01-27T07:44:27;9.85;;;5.20;;
25449;SDS011;13371;52.080;5.624;2024-01-27T07:46:53;11.85;;;5.07;;
25449;SDS011;13371;52.080;5.624;2024-01-27T07:49:18;11.05;;;5.25;;
25449;SDS011;13371;52.080;5.624;2024-01-27T07:51:44;18.25;;;6.25;;
25449;SDS011;13371;52.080;5.624;2024-01-27T07:54:10;10.52;;;5.78;;
25449;SDS011;13371;52.080;5.624;2024-01-27T07:56:37;13.15;;;6.35;;
25449;SDS011;13371;52.080;5.624;2024-01-27T07:59:03;15.48;;;6.00;;
25449;SDS011;13371;52.080;5.624;2024-01-27T08:01:28;20.70;;;6.38;;
25449;SDS011;13371;52.080;5.624;2024-01-27T08:03:54;15.18;;;6.13;;
25449;SDS011;13371;52.080;5.624;2024-01-27T08:06:26;17.95;;;5.53;;
25449;SDS011;13371;52.080;5.624;2024-01-27T08:08:54;14.90;;;5.85;;
25449;SDS011;13371;52.080;5.624;2024-01-27T08:11:19;18.70;;;6.88;;
25449;SDS011;13371;52.080;5.624;2024-01-27T08:13:45;16.10;;;6.90;;
25449;SDS011;13371;52.080;5.624;2024-01-27T08:16:10;15.63;;;6.55;;
25449;SDS011;13371;52.080;5.624;2024-01-27T08:18:40;13.57;;;6.82;;
25449;SDS011;13371;52.080;5.624;2024-01-27T08:21:10;16.63;;;6.53;;
25449;SDS011;13371;52.080;5.624;2024-01-27T08:23:37;15.50;;;6.70;;
25449;SDS011;13371;52.080;5.624;2024-01-27T08:26:02;18.83;;;8.07;;
25449;SDS011;13371;52.080;5.624;2024-01-27T08:28:28;12.70;;;7.20;;
25449;SDS011;13371;52.080;5.624;2024-01-27T08:30:54;20.75;;;9.43;;
25449;SDS011;13371;52.080;5.624;2024-01-27T08:33:19;20.38;;;9.32;;
25449;SDS011;13371;52.080;5.624;2024-01-27T08:35:46;31.77;;;10.48;;
25449;SDS011;13371;52.080;5.624;2024-01-27T08:38:13;25.58;;;10.25;;
25449;SDS011;13371;52.080;5.624;2024-01-27T08:40:38;14.00;;;8.30;;
25449;SDS011;13371;52.080;5.624;2024-01-27T08:43:04;13.93;;;6.80;;
25449;SDS011;13371;52.080;5.624;2024-01-27T08:45:30;14.57;;;6.68;;
25449;SDS011;13371;52.080;5.624;2024-01-27T08:47:56;14.10;;;6.10;;
25449;SDS011;13371;52.080;5.624;2024-01-27T08:50:22;16.13;;;6.22;;
25449;SDS011;13371;52.080;5.624;2024-01-27T08:52:48;15.15;;;5.97;;
25449;SDS011;13371;52.080;5.624;2024-01-27T08:55:13;15.50;;;6.07;;
25449;SDS011;13371;52.080;5.624;2024-01-27T08:57:39;15.07;;;5.38;;
25449;SDS011;13371;52.080;5.624;2024-01-27T09:00:05;16.98;;;5.85;;
25449;SDS011;13371;52.080;5.624;2024-01-27T09:02:31;13.32;;;5.40;;
25449;SDS011;13371;52.080;5.624;2024-01-27T09:04:57;10.93;;;5.20;;
25449;SDS011;13371;52.080;5.624;2024-01-27T09:07:23;13.77;;;5.28;;
25449;SDS011;13371;52.080;5.624;2024-01-27T09:09:49;19.23;;;6.30;;
25449;SDS011;13371;52.080;5.624;2024-01-27T09:12:14;13.00;;;5.38;;
25449;SDS011;13371;52.080;5.624;2024-01-27T09:14:40;14.95;;;4.90;;
25449;SDS011;13371;52.080;5.624;2024-01-27T09:17:06;10.35;;;5.07;;
25449;SDS011;13371;52.080;5.624;2024-01-27T09:19:31;14.43;;;6.28;;
25449;SDS011;13371;52.080;5.624;2024-01-27T09:21:57;14.40;;;5.10;;
25449;SDS011;13371;52.080;5.624;2024-01-27T09:24:23;12.05;;;5.28;;
25449;SDS011;13371;52.080;5.624;2024-01-27T09:26:48;11.98;;;5.75;;
25449;SDS011;13371;52.080;5.624;2024-01-27T09:29:14;15.20;;;5.50;;
25449;SDS011;13371;52.080;5.624;2024-01-27T09:31:39;10.55;;;4.90;;
25449;SDS011;13371;52.080;5.624;2024-01-27T09:34:05;12.07;;;5.75;;
25449;SDS011;13371;52.080;5.624;2024-01-27T09:36:30;11.38;;;4.88;;
25449;SDS011;13371;52.080;5.624;2024-01-27T09:38:56;18.13;;;5.75;;
25449;SDS011;13371;52.080;5.624;2024-01-27T09:41:24;14.07;;;6.25;;
25449;SDS011;13371;52.080;5.624;2024-01-27T09:43:55;18.10;;;6.35;;
25449;SDS011;13371;52.080;5.624;2024-01-27T09:46:28;18.00;;;6.22;;
25449;SDS011;13371;52.080;5.624;2024-01-27T09:48:55;15.45;;;6.13;;
25449;SDS011;13371;52.080;5.624;2024-01-27T09:51:21;16.88;;;5.85;;
25449;SDS011;13371;52.080;5.624;2024-01-27T09:53:47;18.45;;;5.40;;
25449;SDS011;13371;52.080;5.624;2024-01-27T09:56:15;12.20;;;5.32;;
25449;SDS011;13371;52.080;5.624;2024-01-27T09:58:43;19.98;;;5.85;;
25449;SDS011;13371;52.080;5.624;2024-01-27T10:01:09;11.25;;;5.63;;
25449;SDS011;13371;52.080;5.624;2024-01-27T10:03:36;15.52;;;5.82;;
25449;SDS011;13371;52.080;5.624;2024-01-27T10:06:07;18.75;;;5.97;;
25449;SDS011;13371;52.080;5.624;2024-01-27T10:08:34;20.65;;;6.80;;
25449;SDS011;13371;52.080;5.624;2024-01-27T10:10:59;18.98;;;6.68;;
25449;SDS011;13371;52.080;5.624;2024-01-27T10:13:32;24.77;;;6.67;;
25449;SDS011;13371;52.080;5.624;2024-01-27T10:18:30;16.10;;;5.55;;
25449;SDS011;13371;52.080;5.624;2024-01-27T10:20:57;13.50;;;6.07;;
25449;SDS011;13371;52.080;5.624;2024-01-27T10:23:23;18.00;;;6.25;;
25449;SDS011;13371;52.080;5.624;2024-01-27T10:25:49;19.75;;;5.65;;
25449;SDS011;13371;52.080;5.624;2024-01-27T10:28:15;14.52;;;5.43;;
25449;SDS011;13371;52.080;5.624;2024-01-27T10:30:41;14.60;;;6.68;;
25449;SDS011;13371;52.080;5.624;2024-01-27T10:33:10;12.13;;;5.38;;
25449;SDS011;13371;52.080;5.624;2024-01-27T10:35:39;14.27;;;5.68;;
25449;SDS011;13371;52.080;5.624;2024-01-27T10:38:08;10.70;;;5.75;;
25449;SDS011;13371;52.080;5.624;2024-01-27T10:40:35;17.52;;;6.15;;
25449;SDS011;13371;52.080;5.624;2024-01-27T10:45:33;14.98;;;5.28;;
25449;SDS011;13371;52.080;5.624;2024-01-27T10:48:04;18.95;;;5.43;;
25449;SDS011;13371;52.080;5.624;2024-01-27T10:50:32;16.33;;;5.78;;
25449;SDS011;13371;52.080;5.624;2024-01-27T10:53:19;14.20;;;5.63;;
25449;SDS011;13371;52.080;5.624;2024-01-27T10:55:48;18.80;;;4.75;;
25449;SDS011;13371;52.080;5.624;2024-01-27T10:58:18;13.65;;;4.00;;
25449;SDS011;13371;52.080;5.624;2024-01-27T11:00:46;15.23;;;4.63;;
25449;SDS011;13371;52.080;5.624;2024-01-27T11:03:15;22.67;;;5.30;;
25449;SDS011;13371;52.080;5.624;2024-01-27T11:05:43;12.32;;;5.93;;
25449;SDS011;13371;52.080;5.624;2024-01-27T11:08:11;12.93;;;4.88;;
25449;SDS011;13371;52.080;5.624;2024-01-27T11:10:38;14.50;;;4.95;;
25449;SDS011;13371;52.080;5.624;2024-01-27T11:13:05;13.75;;;5.13;;
25449;SDS011;13371;52.080;5.624;2024-01-27T11:15:32;21.52;;;5.93;;
25449;SDS011;13371;52.080;5.624;2024-01-27T11:17:58;16.98;;;5.10;;
25449;SDS011;13371;52.080;5.624;2024-01-27T11:20:25;12.65;;;4.57;;
25449;SDS011;13371;52.080;5.624;2024-01-27T11:22:51;15.90;;;5.10;;
25449;SDS011;13371;52.080;5.624;2024-01-27T11:25:17;14.32;;;4.05;;
25449;SDS011;13371;52.080;5.624;2024-01-27T11:27:44;13.80;;;5.07;;
25449;SDS011;13371;52.080;5.624;2024-01-27T11:30:27;13.82;;;4.72;;
25449;SDS011;13371;52.080;5.624;2024-01-27T11:32:57;18.75;;;4.55;;
25449;SDS011;13371;52.080;5.624;2024-01-27T11:35:25;16.20;;;4.95;;
25449;SDS011;13371;52.080;5.624;2024-01-27T11:37:51;20.77;;;4.70;;
25449;SDS011;13371;52.080;5.624;2024-01-27T11:40:17;18.58;;;5.18;;
25449;SDS011;13371;52.080;5.624;2024-01-27T11:42:42;16.27;;;4.70;;
25449;SDS011;13371;52.080;5.624;2024-01-27T11:45:08;14.32;;;4.30;;
25449;SDS011;13371;52.080;5.624;2024-01-27T11:47:35;14.70;;;4.60;;
25449;SDS011;13371;52.080;5.624;2024-01-27T11:50:01;14.43;;;4.90;;
25449;SDS011;13371;52.080;5.624;2024-01-27T11:52:28;12.38;;;4.45;;
25449;SDS011;13371;52.080;5.624;2024-01-27T11:54:57;15.48;;;4.82;;
25449;SDS011;13371;52.080;5.624;2024-01-27T11:57:25;19.00;;;5.43;;
25449;SDS011;13371;52.080;5.624;2024-01-27T11:59:52;9.32;;;4.05;;
25449;SDS011;13371;52.080;5.624;2024-01-27T12:02:18;17.13;;;5.28;;
25449;SDS011;13371;52.080;5.624;2024-01-27T12:04:44;13.10;;;4.43;;
25449;SDS011;13371;52.080;5.624;2024-01-27T12:07:09;17.67;;;4.38;;
25449;SDS011;13371;52.080;5.624;2024-01-27T12:09:38;9.38;;;4.07;;
25449;SDS011;13371;52.080;5.624;2024-01-27T12:12:04;13.52;;;4.85;;
25449;SDS011;13371;52.080;5.624;2024-01-27T12:17:08;16.63;;;4.40;;
25449;SDS011;13371;52.080;5.624;2024-01-27T12:19:35;13.95;;;4.45;;
25449;SDS011;13371;52.080;5.624;2024-01-27T12:22:01;11.25;;;4.55;;
25449;SDS011;13371;52.080;5.624;2024-01-27T12:24:27;20.70;;;4.78;;
25449;SDS011;13371;52.080;5.624;2024-01-27T12:26:52;16.15;;;4.95;;
25449;SDS011;13371;52.080;5.624;2024-01-27T12:29:20;12.00;;;4.90;;
25449;SDS011;13371;52.080;5.624;2024-01-27T12:31:46;14.88;;;4.10;;
25449;SDS011;13371;52.080;5.624;2024-01-27T12:34:12;14.40;;;3.78;;
25449;SDS011;13371;52.080;5.624;2024-01-27T12:36:41;14.65;;;3.90;;
25449;SDS011;13371;52.080;5.624;2024-01-27T12:39:07;13.30;;;3.75;;
25449;SDS011;13371;52.080;5.624;2024-01-27T12:41:34;19.55;;;4.25;;
25449;SDS011;13371;52.080;5.624;2024-01-27T12:44:00;13.40;;;3.88;;
25449;SDS011;13371;52.080;5.624;2024-01-27T12:46:26;18.05;;;4.28;;
25449;SDS011;13371;52.080;5.624;2024-01-27T12:48:52;15.35;;;4.20;;
25449;SDS011;13371;52.080;5.624;2024-01-27T12:51:18;13.90;;;3.97;;
25449;SDS011;13371;52.080;5.624;2024-01-27T12:53:44;12.60;;;3.80;;
25449;SDS011;13371;52.080;5.624;2024-01-27T12:56:10;13.60;;;4.10;;
25449;SDS011;13371;52.080;5.624;2024-01-27T12:58:37;18.08;;;3.88;;
25449;SDS011;13371;52.080;5.624;2024-01-27T13:01:03;8.73;;;3.85;;
25449;SDS011;13371;52.080;5.624;2024-01-27T13:03:29;14.07;;;3.65;;
25449;SDS011;13371;52.080;5.624;2024-01-27T13:05:55;12.23;;;3.72;;
25449;SDS011;13371;52.080;5.624;2024-01-27T13:08:21;12.60;;;4.60;;
25449;SDS011;13371;52.080;5.624;2024-01-27T13:10:47;11.15;;;4.13;;
25449;SDS011;13371;52.080;5.624;2024-01-27T13:13:13;10.52;;;4.35;;
25449;SDS011;13371;52.080;5.624;2024-01-27T13:15:39;11.95;;;3.55;;
25449;SDS011;13371;52.080;5.624;2024-01-27T13:18:05;12.05;;;3.30;;
25449;SDS011;13371;52.080;5.624;2024-01-27T13:20:31;18.05;;;3.67;;
25449;SDS011;13371;52.080;5.624;2024-01-27T13:22:57;10.93;;;3.03;;
25449;SDS011;13371;52.080;5.624;2024-01-27T13:25:23;9.82;;;3.50;;
25449;SDS011;13371;52.080;5.624;2024-01-27T13:27:49;14.02;;;3.85;;
25449;SDS011;13371;52.080;5.624;2024-01-27T13:30:15;24.52;;;4.13;;
25449;SDS011;13371;52.080;5.624;2024-01-27T13:32:42;14.23;;;3.70;;
25449;SDS011;13371;52.080;5.624;2024-01-27T13:35:08;8.95;;;3.60;;
25449;SDS011;13371;52.080;5.624;2024-01-27T13:37:33;16.25;;;3.80;;
25449;SDS011;13371;52.080;5.624;2024-01-27T13:40:00;13.90;;;3.72;;
25449;SDS011;13371;52.080;5.624;2024-01-27T13:42:26;15.25;;;4.00;;
25449;SDS011;13371;52.080;5.624;2024-01-27T13:44:51;11.52;;;4.57;;
25449;SDS011;13371;52.080;5.624;2024-01-27T13:47:17;20.10;;;4.75;;
25449;SDS011;13371;52.080;5.624;2024-01-27T13:49:43;14.20;;;3.85;;
25449;SDS011;13371;52.080;5.624;2024-01-27T13:52:09;18.15;;;3.90;;
25449;SDS011;13371;52.080;5.624;2024-01-27T13:54:35;10.02;;;3.83;;
25449;SDS011;13371;52.080;5.624;2024-01-27T13:57:02;14.82;;;3.28;;
25449;SDS011;13371;52.080;5.624;2024-01-27T13:59:27;13.63;;;3.83;;
25449;SDS011;13371;52.080;5.624;2024-01-27T14:01:53;8.57;;;3.55;;
25449;SDS011;13371;52.080;5.624;2024-01-27T14:04:20;15.77;;;4.15;;
25449;SDS011;13371;52.080;5.624;2024-01-27T14:06:45;14.63;;;4.32;;
25449;SDS011;13371;52.080;5.624;2024-01-27T14:09:11;13.02;;;4.15;;
25449;SDS011;13371;52.080;5.624;2024-01-27T14:11:38;12.23;;;4.05;;
25449;SDS011;13371;52.080;5.624;2024-01-27T14:14:04;13.15;;;4.28;;
25449;SDS011;13371;52.080;5.624;2024-01-27T14:16:29;13.38;;;5.35;;
25449;SDS011;13371;52.080;5.624;2024-01-27T14:18:55;10.30;;;4.18;;
25449;SDS011;13371;52.080;5.624;2024-01-27T14:21:21;12.60;;;4.05;;
25449;SDS011;13371;52.080;5.624;2024-01-27T14:23:47;11.02;;;3.92;;
25449;SDS011;13371;52.080;5.624;2024-01-27T14:26:14;15.93;;;4.60;;
25449;SDS011;13371;52.080;5.624;2024-01-27T14:28:40;12.93;;;4.10;;
25449;SDS011;13371;52.080;5.624;2024-01-27T14:31:06;15.65;;;4.32;;
25449;SDS011;13371;52.080;5.624;2024-01-27T14:33:32;36.08;;;6.45;;
25449;SDS011;13371;52.080;5.624;2024-01-27T14:35:58;12.98;;;4.05;;
25449;SDS011;13371;52.080;5.624;2024-01-27T14:38:24;16.10;;;4.28;;
25449;SDS011;13371;52.080;5.624;2024-01-27T14:40:50;16.42;;;4.50;;